sensor_id;sensor_type;location;lat;lon;timestamp;P1;durP1;ratioP1;P2;durP2;ratioP2
33802;SDS011;20110;53.120;5.786;2023-04-02T00:08:05;12.95;;;4.18;;
33802;SDS011;20110;53.120;5.786;2023-04-02T00:13:42;9.23;;;3.60;;
33802;SDS011;20110;53.120;5.786;2023-04-02T00:16:11;6.22;;;3.50;;
33802;SDS011;20110;53.120;5.786;2023-04-02T00:18:46;6.22;;;3.17;;
33802;SDS011;20110;53.120;5.786;2023-04-02T00:21:28;9.50;;;3.53;;
33802;SDS011;20110;53.120;5.786;2023-04-02T00:23:59;7.15;;;3.25;;
33802;SDS011;20110;53.120;5.786;2023-04-02T00:26:32;6.53;;;4.07;;
33802;SDS011;20110;53.120;5.786;2023-04-02T00:29:06;11.38;;;3.75;;
33802;SDS011;20110;53.120;5.786;2023-04-02T00:31:36;11.75;;;3.83;;
33802;SDS011;20110;53.120;5.786;2023-04-02T00:34:08;14.68;;;3.35;;
33802;SDS011;20110;53.120;5.786;2023-04-02T00:36:49;12.20;;;3.80;;
33802;SDS011;20110;53.120;5.786;2023-04-02T00:39:27;12.35;;;3.65;;
33802;SDS011;20110;53.120;5.786;2023-04-02T00:41:58;13.80;;;3.78;;
33802;SDS011;20110;53.120;5.786;2023-04-02T00:44:37;9.35;;;3.58;;
33802;SDS011;20110;53.120;5.786;2023-04-02T00:49:45;7.10;;;3.08;;
33802;SDS011;20110;53.120;5.786;2023-04-02T00:52:21;7.65;;;3.40;;
33802;SDS011;20110;53.120;5.786;2023-04-02T00:54:55;13.85;;;3.70;;
33802;SDS011;20110;53.120;5.786;2023-04-02T00:57:31;9.52;;;3.22;;
33802;SDS011;20110;53.120;5.786;2023-04-02T01:00:09;14.52;;;3.63;;
33802;SDS011;20110;53.120;5.786;2023-04-02T01:05:41;6.18;;;3.33;;
33802;SDS011;20110;53.120;5.786;2023-04-02T01:17:57;7.90;;;2.85;;
33802;SDS011;20110;53.120;5.786;2023-04-02T01:23:59;7.10;;;2.97;;
33802;SDS011;20110;53.120;5.786;2023-04-02T01:29:18;9.85;;;3.28;;
33802;SDS011;20110;53.120;5.786;2023-04-02T01:31:54;5.88;;;2.90;;
33802;SDS011;20110;53.120;5.786;2023-04-02T01:34:27;7.32;;;3.25;;
33802;SDS011;20110;53.120;5.786;2023-04-02T01:43:34;8.48;;;3.15;;
33802;SDS011;20110;53.120;5.786;2023-04-02T01:46:28;16.02;;;3.35;;
33802;SDS011;20110;53.120;5.786;2023-04-02T01:48:59;7.28;;;2.75;;
33802;SDS011;20110;53.120;5.786;2023-04-02T01:51:34;6.10;;;3.17;;
33802;SDS011;20110;53.120;5.786;2023-04-02T01:54:06;7.20;;;2.85;;
33802;SDS011;20110;53.120;5.786;2023-04-02T01:56:32;10.07;;;3.17;;
33802;SDS011;20110;53.120;5.786;2023-04-02T01:58:59;3.15;;;2.50;;
33802;SDS011;20110;53.120;5.786;2023-04-02T02:01:51;10.48;;;3.28;;
33802;SDS011;20110;53.120;5.786;2023-04-02T02:04:31;5.88;;;3.22;;
33802;SDS011;20110;53.120;5.786;2023-04-02T02:06:59;12.23;;;2.83;;
33802;SDS011;20110;53.120;5.786;2023-04-02T02:09:28;5.90;;;2.40;;
33802;SDS011;20110;53.120;5.786;2023-04-02T02:11:58;8.93;;;2.88;;
33802;SDS011;20110;53.120;5.786;2023-04-02T02:14:27;5.07;;;2.78;;
33802;SDS011;20110;53.120;5.786;2023-04-02T02:16:56;9.77;;;3.45;;
33802;SDS011;20110;53.120;5.786;2023-04-02T02:22:25;6.13;;;2.70;;
33802;SDS011;20110;53.120;5.786;2023-04-02T02:24:56;10.52;;;3.20;;
33802;SDS011;20110;53.120;5.786;2023-04-02T02:30:15;5.32;;;2.55;;
33802;SDS011;20110;53.120;5.786;2023-04-02T02:32:53;6.45;;;3.05;;
33802;SDS011;20110;53.120;5.786;2023-04-02T02:41:45;8.20;;;2.65;;
33802;SDS011;20110;53.120;5.786;2023-04-02T02:44:03;4.88;;;2.47;;
33802;SDS011;20110;53.120;5.786;2023-04-02T02:46:32;8.80;;;2.65;;
33802;SDS011;20110;53.120;5.786;2023-04-02T02:49:27;2.90;;;1.80;;
33802;SDS011;20110;53.120;5.786;2023-04-02T02:54:33;6.93;;;2.90;;
33802;SDS011;20110;53.120;5.786;2023-04-02T02:57:19;3.77;;;2.07;;
33802;SDS011;20110;53.120;5.786;2023-04-02T02:59:50;7.93;;;2.15;;
33802;SDS011;20110;53.120;5.786;2023-04-02T03:02:23;6.80;;;2.28;;
33802;SDS011;20110;53.120;5.786;2023-04-02T03:04:51;6.00;;;2.20;;
33802;SDS011;20110;53.120;5.786;2023-04-02T03:07:21;6.05;;;1.73;;
33802;SDS011;20110;53.120;5.786;2023-04-02T03:09:57;7.05;;;2.33;;
33802;SDS011;20110;53.120;5.786;2023-04-02T03:12:50;5.80;;;2.33;;
33802;SDS011;20110;53.120;5.786;2023-04-02T03:18:54;9.20;;;1.80;;
33802;SDS011;20110;53.120;5.786;2023-04-02T03:22:04;11.57;;;1.88;;
33802;SDS011;20110;53.120;5.786;2023-04-02T03:27:52;5.80;;;1.65;;
33802;SDS011;20110;53.120;5.786;2023-04-02T03:30:37;12.50;;;1.90;;
33802;SDS011;20110;53.120;5.786;2023-04-02T03:33:34;5.43;;;2.05;;
33802;SDS011;20110;53.120;5.786;2023-04-02T03:38:59;5.13;;;2.17;;
33802;SDS011;20110;53.120;5.786;2023-04-02T03:41:36;8.27;;;2.72;;
33802;SDS011;20110;53.120;5.786;2023-04-02T03:47:14;11.88;;;2.33;;
33802;SDS011;20110;53.120;5.786;2023-04-02T03:49:50;5.00;;;1.67;;
33802;SDS011;20110;53.120;5.786;2023-04-02T03:52:25;4.35;;;2.65;;
33802;SDS011;20110;53.120;5.786;2023-04-02T03:54:56;2.55;;;1.45;;
33802;SDS011;20110;53.120;5.786;2023-04-02T04:02:57;5.90;;;1.85;;
33802;SDS011;20110;53.120;5.786;2023-04-02T04:05:35;10.73;;;2.05;;
33802;SDS011;20110;53.120;5.786;2023-04-02T04:08:16;5.57;;;1.40;;
33802;SDS011;20110;53.120;5.786;2023-04-02T04:10:55;3.40;;;1.75;;
33802;SDS011;20110;53.120;5.786;2023-04-02T04:13:32;10.50;;;2.15;;
33802;SDS011;20110;53.120;5.786;2023-04-02T04:16:18;8.57;;;2.63;;
33802;SDS011;20110;53.120;5.786;2023-04-02T04:19:21;6.47;;;1.92;;
33802;SDS011;20110;53.120;5.786;2023-04-02T04:22:08;7.70;;;2.17;;
33802;SDS011;20110;53.120;5.786;2023-04-02T04:24:54;8.25;;;2.72;;
33802;SDS011;20110;53.120;5.786;2023-04-02T04:27:58;3.75;;;1.30;;
33802;SDS011;20110;53.120;5.786;2023-04-02T04:33:51;12.85;;;2.30;;
33802;SDS011;20110;53.120;5.786;2023-04-02T04:36:30;4.72;;;1.70;;
33802;SDS011;20110;53.120;5.786;2023-04-02T04:39:07;12.52;;;2.30;;
33802;SDS011;20110;53.120;5.786;2023-04-02T04:41:41;4.82;;;1.70;;
33802;SDS011;20110;53.120;5.786;2023-04-02T04:44:18;5.55;;;2.05;;
33802;SDS011;20110;53.120;5.786;2023-04-02T04:49:19;4.18;;;1.77;;
33802;SDS011;20110;53.120;5.786;2023-04-02T04:51:47;8.07;;;1.77;;
33802;SDS011;20110;53.120;5.786;2023-04-02T04:54:23;6.88;;;2.65;;
33802;SDS011;20110;53.120;5.786;2023-04-02T04:56:56;3.45;;;1.73;;
33802;SDS011;20110;53.120;5.786;2023-04-02T04:59:43;8.68;;;2.10;;
33802;SDS011;20110;53.120;5.786;2023-04-02T05:02:22;7.40;;;1.60;;
33802;SDS011;20110;53.120;5.786;2023-04-02T05:04:53;11.05;;;1.90;;
33802;SDS011;20110;53.120;5.786;2023-04-02T05:07:20;6.55;;;1.30;;
33802;SDS011;20110;53.120;5.786;2023-04-02T05:09:58;3.78;;;2.38;;
33802;SDS011;20110;53.120;5.786;2023-04-02T05:12:42;1.98;;;1.58;;
33802;SDS011;20110;53.120;5.786;2023-04-02T05:15:20;6.68;;;1.83;;
33802;SDS011;20110;53.120;5.786;2023-04-02T05:23:47;7.38;;;2.05;;
33802;SDS011;20110;53.120;5.786;2023-04-02T05:26:46;9.90;;;1.58;;
33802;SDS011;20110;53.120;5.786;2023-04-02T05:29:17;6.43;;;2.00;;
33802;SDS011;20110;53.120;5.786;2023-04-02T05:31:57;11.32;;;2.05;;
33802;SDS011;20110;53.120;5.786;2023-04-02T05:34:31;7.78;;;1.38;;
33802;SDS011;20110;53.120;5.786;2023-04-02T05:39:44;5.45;;;1.40;;
33802;SDS011;20110;53.120;5.786;2023-04-02T05:42:14;5.13;;;1.23;;
33802;SDS011;20110;53.120;5.786;2023-04-02T05:47:40;5.72;;;1.50;;
33802;SDS011;20110;53.120;5.786;2023-04-02T05:52:58;6.20;;;1.65;;
33802;SDS011;20110;53.120;5.786;2023-04-02T05:58:12;5.20;;;2.10;;
33802;SDS011;20110;53.120;5.786;2023-04-02T06:00:57;4.03;;;1.92;;
33802;SDS011;20110;53.120;5.786;2023-04-02T06:04:10;7.93;;;1.88;;
33802;SDS011;20110;53.120;5.786;2023-04-02T06:07:04;6.93;;;2.17;;
33802;SDS011;20110;53.120;5.786;2023-04-02T06:14:52;6.20;;;1.42;;
33802;SDS011;20110;53.120;5.786;2023-04-02T06:17:18;3.72;;;1.20;;
33802;SDS011;20110;53.120;5.786;2023-04-02T06:19:46;3.42;;;1.00;;
33802;SDS011;20110;53.120;5.786;2023-04-02T06:25:08;2.70;;;1.52;;
33802;SDS011;20110;53.120;5.786;2023-04-02T06:27:44;4.28;;;1.25;;
33802;SDS011;20110;53.120;5.786;2023-04-02T06:30:22;2.75;;;1.30;;
33802;SDS011;20110;53.120;5.786;2023-04-02T06:33:02;8.48;;;1.42;;
33802;SDS011;20110;53.120;5.786;2023-04-02T06:35:28;9.88;;;1.50;;
33802;SDS011;20110;53.120;5.786;2023-04-02T06:37:56;5.43;;;1.23;;
33802;SDS011;20110;53.120;5.786;2023-04-02T06:43:51;5.22;;;1.65;;
33802;SDS011;20110;53.120;5.786;2023-04-02T06:46:37;5.95;;;1.55;;
33802;SDS011;20110;53.120;5.786;2023-04-02T06:49:14;4.83;;;1.83;;
33802;SDS011;20110;53.120;5.786;2023-04-02T06:51:50;11.93;;;2.03;;
33802;SDS011;20110;53.120;5.786;2023-04-02T06:54:20;6.43;;;1.67;;
33802;SDS011;20110;53.120;5.786;2023-04-02T06:56:48;3.80;;;1.65;;
33802;SDS011;20110;53.120;5.786;2023-04-02T06:59:16;9.85;;;1.85;;
33802;SDS011;20110;53.120;5.786;2023-04-02T07:01:53;11.15;;;2.08;;
33802;SDS011;20110;53.120;5.786;2023-04-02T07:04:27;4.78;;;2.00;;
33802;SDS011;20110;53.120;5.786;2023-04-02T07:06:53;3.92;;;1.55;;
33802;SDS011;20110;53.120;5.786;2023-04-02T07:09:19;4.95;;;1.25;;
33802;SDS011;20110;53.120;5.786;2023-04-02T07:11:46;4.82;;;1.50;;
33802;SDS011;20110;53.120;5.786;2023-04-02T07:14:12;5.95;;;1.98;;
33802;SDS011;20110;53.120;5.786;2023-04-02T07:16:38;8.35;;;1.65;;
33802;SDS011;20110;53.120;5.786;2023-04-02T07:19:08;7.18;;;2.45;;
33802;SDS011;20110;53.120;5.786;2023-04-02T07:21:43;4.80;;;2.13;;
33802;SDS011;20110;53.120;5.786;2023-04-02T07:24:08;8.93;;;1.65;;
33802;SDS011;20110;53.120;5.786;2023-04-02T07:26:34;2.80;;;1.40;;
33802;SDS011;20110;53.120;5.786;2023-04-02T07:29:00;6.10;;;1.70;;
33802;SDS011;20110;53.120;5.786;2023-04-02T07:31:26;3.17;;;1.80;;
33802;SDS011;20110;53.120;5.786;2023-04-02T07:33:54;7.50;;;2.10;;
33802;SDS011;20110;53.120;5.786;2023-04-02T07:36:24;6.95;;;1.95;;
33802;SDS011;20110;53.120;5.786;2023-04-02T07:38:53;3.75;;;1.80;;
33802;SDS011;20110;53.120;5.786;2023-04-02T07:41:18;4.10;;;1.17;;
33802;SDS011;20110;53.120;5.786;2023-04-02T07:43:45;5.38;;;1.10;;
33802;SDS011;20110;53.120;5.786;2023-04-02T07:46:12;7.30;;;1.73;;
33802;SDS011;20110;53.120;5.786;2023-04-02T07:48:40;4.88;;;1.63;;
33802;SDS011;20110;53.120;5.786;2023-04-02T07:53:48;5.57;;;1.50;;
33802;SDS011;20110;53.120;5.786;2023-04-02T07:56:20;2.60;;;1.00;;
33802;SDS011;20110;53.120;5.786;2023-04-02T07:58:47;2.03;;;1.10;;
33802;SDS011;20110;53.120;5.786;2023-04-02T08:01:15;2.55;;;1.50;;
33802;SDS011;20110;53.120;5.786;2023-04-02T08:03:44;5.60;;;1.83;;
33802;SDS011;20110;53.120;5.786;2023-04-02T08:06:11;4.53;;;1.67;;
33802;SDS011;20110;53.120;5.786;2023-04-02T08:08:38;2.92;;;1.40;;
33802;SDS011;20110;53.120;5.786;2023-04-02T08:11:04;1.98;;;1.30;;
33802;SDS011;20110;53.120;5.786;2023-04-02T08:13:30;8.25;;;1.10;;
33802;SDS011;20110;53.120;5.786;2023-04-02T08:15:57;3.17;;;1.17;;
33802;SDS011;20110;53.120;5.786;2023-04-02T08:18:24;4.25;;;1.30;;
33802;SDS011;20110;53.120;5.786;2023-04-02T08:20:50;5.72;;;1.02;;
33802;SDS011;20110;53.120;5.786;2023-04-02T08:23:16;4.28;;;1.60;;
33802;SDS011;20110;53.120;5.786;2023-04-02T08:25:43;6.72;;;1.45;;
33802;SDS011;20110;53.120;5.786;2023-04-02T08:28:10;2.47;;;1.48;;
33802;SDS011;20110;53.120;5.786;2023-04-02T08:30:36;5.95;;;1.50;;
33802;SDS011;20110;53.120;5.786;2023-04-02T08:33:02;8.13;;;1.65;;
33802;SDS011;20110;53.120;5.786;2023-04-02T08:35:28;8.50;;;1.65;;
33802;SDS011;20110;53.120;5.786;2023-04-02T08:37:55;3.65;;;1.38;;
33802;SDS011;20110;53.120;5.786;2023-04-02T08:40:22;6.03;;;1.55;;
33802;SDS011;20110;53.120;5.786;2023-04-02T08:48:56;3.45;;;1.10;;
33802;SDS011;20110;53.120;5.786;2023-04-02T08:51:29;2.72;;;1.40;;
33802;SDS011;20110;53.120;5.786;2023-04-02T08:54:11;1.10;;;1.00;;
33802;SDS011;20110;53.120;5.786;2023-04-02T08:56:58;5.13;;;1.95;;
33802;SDS011;20110;53.120;5.786;2023-04-02T08:59:39;3.65;;;1.58;;
33802;SDS011;20110;53.120;5.786;2023-04-02T09:05:18;4.93;;;1.63;;
33802;SDS011;20110;53.120;5.786;2023-04-02T09:07:56;8.13;;;1.60;;
33802;SDS011;20110;53.120;5.786;2023-04-02T09:10:37;9.75;;;1.40;;
33802;SDS011;20110;53.120;5.786;2023-04-02T09:13:19;3.35;;;1.30;;
33802;SDS011;20110;53.120;5.786;2023-04-02T09:16:02;4.50;;;1.48;;
33802;SDS011;20110;53.120;5.786;2023-04-02T09:18:40;5.15;;;1.30;;
33802;SDS011;20110;53.120;5.786;2023-04-02T09:21:17;7.18;;;1.48;;
33802;SDS011;20110;53.120;5.786;2023-04-02T09:24:00;4.32;;;1.50;;
33802;SDS011;20110;53.120;5.786;2023-04-02T09:26:27;1.83;;;1.13;;
33802;SDS011;20110;53.120;5.786;2023-04-02T09:31:42;2.90;;;1.45;;
33802;SDS011;20110;53.120;5.786;2023-04-02T09:34:28;3.40;;;1.60;;
33802;SDS011;20110;53.120;5.786;2023-04-02T09:37:07;8.40;;;1.67;;
33802;SDS011;20110;53.120;5.786;2023-04-02T09:39:41;3.83;;;1.20;;
33802;SDS011;20110;53.120;5.786;2023-04-02T09:42:25;4.40;;;1.52;;
33802;SDS011;20110;53.120;5.786;2023-04-02T09:45:32;5.03;;;1.45;;
33802;SDS011;20110;53.120;5.786;2023-04-02T09:47:51;5.35;;;1.30;;
33802;SDS011;20110;53.120;5.786;2023-04-02T09:52:49;10.20;;;1.45;;
33802;SDS011;20110;53.120;5.786;2023-04-02T09:57:47;3.45;;;1.75;;
33802;SDS011;20110;53.120;5.786;2023-04-02T10:03:17;2.70;;;1.40;;
33802;SDS011;20110;53.120;5.786;2023-04-02T10:08:39;4.45;;;1.77;;
33802;SDS011;20110;53.120;5.786;2023-04-02T10:11:09;4.53;;;1.45;;
33802;SDS011;20110;53.120;5.786;2023-04-02T10:13:56;3.72;;;1.75;;
33802;SDS011;20110;53.120;5.786;2023-04-02T10:16:35;2.63;;;1.33;;
33802;SDS011;20110;53.120;5.786;2023-04-02T10:22:18;7.57;;;1.65;;
33802;SDS011;20110;53.120;5.786;2023-04-02T10:24:46;5.22;;;1.25;;
33802;SDS011;20110;53.120;5.786;2023-04-02T10:47:52;4.78;;;1.40;;
33802;SDS011;20110;53.120;5.786;2023-04-02T10:56:48;2.83;;;1.23;;
33802;SDS011;20110;53.120;5.786;2023-04-02T10:59:23;2.25;;;1.20;;
33802;SDS011;20110;53.120;5.786;2023-04-02T11:01:56;2.30;;;1.10;;
33802;SDS011;20110;53.120;5.786;2023-04-02T11:04:28;3.08;;;1.42;;
33802;SDS011;20110;53.120;5.786;2023-04-02T11:07:06;3.72;;;1.20;;
33802;SDS011;20110;53.120;5.786;2023-04-02T11:09:42;4.03;;;1.30;;
33802;SDS011;20110;53.120;5.786;2023-04-02T11:12:58;4.13;;;1.25;;
33802;SDS011;20110;53.120;5.786;2023-04-02T11:15:16;3.13;;;1.20;;
33802;SDS011;20110;53.120;5.786;2023-04-02T11:17:44;2.90;;;1.45;;
33802;SDS011;20110;53.120;5.786;2023-04-02T11:23:17;2.90;;;1.27;;
33802;SDS011;20110;53.120;5.786;2023-04-02T11:25:45;4.55;;;1.30;;
33802;SDS011;20110;53.120;5.786;2023-04-02T11:28:29;2.20;;;1.20;;
33802;SDS011;20110;53.120;5.786;2023-04-02T11:30:56;2.97;;;1.02;;
33802;SDS011;20110;53.120;5.786;2023-04-02T11:35:55;3.58;;;1.48;;
33802;SDS011;20110;53.120;5.786;2023-04-02T11:48:42;2.30;;;0.98;;
33802;SDS011;20110;53.120;5.786;2023-04-02T11:51:54;5.15;;;1.50;;
33802;SDS011;20110;53.120;5.786;2023-04-02T11:53:55;2.10;;;0.93;;
33802;SDS011;20110;53.120;5.786;2023-04-02T12:05:00;3.42;;;1.30;;
33802;SDS011;20110;53.120;5.786;2023-04-02T12:13:19;3.30;;;1.30;;
33802;SDS011;20110;53.120;5.786;2023-04-02T12:16:11;5.10;;;1.40;;
33802;SDS011;20110;53.120;5.786;2023-04-02T12:18:45;3.30;;;1.33;;
33802;SDS011;20110;53.120;5.786;2023-04-02T12:21:20;3.95;;;1.30;;
33802;SDS011;20110;53.120;5.786;2023-04-02T12:23:50;2.30;;;1.42;;
33802;SDS011;20110;53.120;5.786;2023-04-02T12:26:25;2.83;;;1.60;;
33802;SDS011;20110;53.120;5.786;2023-04-02T12:31:49;5.28;;;1.17;;
33802;SDS011;20110;53.120;5.786;2023-04-02T12:34:16;1.52;;;1.02;;
33802;SDS011;20110;53.120;5.786;2023-04-02T12:36:52;4.35;;;1.35;;
33802;SDS011;20110;53.120;5.786;2023-04-02T12:39:21;3.90;;;1.10;;
33802;SDS011;20110;53.120;5.786;2023-04-02T12:41:48;6.53;;;1.88;;
33802;SDS011;20110;53.120;5.786;2023-04-02T12:44:15;3.28;;;1.25;;
33802;SDS011;20110;53.120;5.786;2023-04-02T12:46:45;4.13;;;0.98;;
33802;SDS011;20110;53.120;5.786;2023-04-02T12:52:16;3.65;;;1.08;;
33802;SDS011;20110;53.120;5.786;2023-04-02T12:54:47;4.15;;;1.40;;
33802;SDS011;20110;53.120;5.786;2023-04-02T12:59:55;3.17;;;1.02;;
33802;SDS011;20110;53.120;5.786;2023-04-02T13:05:48;4.35;;;1.13;;
33802;SDS011;20110;53.120;5.786;2023-04-02T13:08:22;5.22;;;1.02;;
33802;SDS011;20110;53.120;5.786;2023-04-02T13:11:02;5.72;;;1.10;;
33802;SDS011;20110;53.120;5.786;2023-04-02T13:13:38;4.78;;;1.23;;
33802;SDS011;20110;53.120;5.786;2023-04-02T13:18:39;4.22;;;1.40;;
33802;SDS011;20110;53.120;5.786;2023-04-02T13:23:39;6.20;;;1.05;;
33802;SDS011;20110;53.120;5.786;2023-04-02T13:29:00;2.47;;;0.90;;
33802;SDS011;20110;53.120;5.786;2023-04-02T13:31:52;5.40;;;1.55;;
33802;SDS011;20110;53.120;5.786;2023-04-02T13:34:22;2.67;;;1.48;;
33802;SDS011;20110;53.120;5.786;2023-04-02T13:36:48;4.53;;;1.60;;
33802;SDS011;20110;53.120;5.786;2023-04-02T13:39:14;2.22;;;1.27;;
33802;SDS011;20110;53.120;5.786;2023-04-02T13:41:42;4.40;;;1.02;;
33802;SDS011;20110;53.120;5.786;2023-04-02T13:44:21;2.20;;;1.30;;
33802;SDS011;20110;53.120;5.786;2023-04-02T13:46:51;0.95;;;0.85;;
33802;SDS011;20110;53.120;5.786;2023-04-02T13:49:19;5.60;;;1.63;;
33802;SDS011;20110;53.120;5.786;2023-04-02T13:51:46;4.20;;;1.30;;
33802;SDS011;20110;53.120;5.786;2023-04-02T13:54:18;9.73;;;0.95;;
33802;SDS011;20110;53.120;5.786;2023-04-02T13:56:47;1.92;;;1.02;;
33802;SDS011;20110;53.120;5.786;2023-04-02T13:59:14;3.20;;;1.35;;
33802;SDS011;20110;53.120;5.786;2023-04-02T14:01:40;1.60;;;1.00;;
33802;SDS011;20110;53.120;5.786;2023-04-02T14:04:11;1.92;;;1.13;;
33802;SDS011;20110;53.120;5.786;2023-04-02T14:30:13;7.15;;;1.70;;
33802;SDS011;20110;53.120;5.786;2023-04-02T14:32:53;1.10;;;1.00;;
33802;SDS011;20110;53.120;5.786;2023-04-02T14:41:12;3.35;;;1.15;;
33802;SDS011;20110;53.120;5.786;2023-04-02T14:44:03;0.93;;;0.93;;
33802;SDS011;20110;53.120;5.786;2023-04-02T14:46:31;5.93;;;1.45;;
33802;SDS011;20110;53.120;5.786;2023-04-02T15:03:11;4.38;;;1.10;;
33802;SDS011;20110;53.120;5.786;2023-04-02T15:05:48;2.00;;;1.02;;
33802;SDS011;20110;53.120;5.786;2023-04-02T15:08:46;3.50;;;1.45;;
33802;SDS011;20110;53.120;5.786;2023-04-02T15:11:36;3.75;;;1.30;;
33802;SDS011;20110;53.120;5.786;2023-04-02T15:14:18;2.80;;;1.30;;
33802;SDS011;20110;53.120;5.786;2023-04-02T15:16:57;2.13;;;1.15;;
33802;SDS011;20110;53.120;5.786;2023-04-02T15:19:23;4.05;;;1.40;;
33802;SDS011;20110;53.120;5.786;2023-04-02T15:30:37;2.38;;;1.45;;
33802;SDS011;20110;53.120;5.786;2023-04-02T15:42:28;2.67;;;1.23;;
33802;SDS011;20110;53.120;5.786;2023-04-02T15:47:44;3.15;;;1.58;;
33802;SDS011;20110;53.120;5.786;2023-04-02T15:56:06;3.55;;;1.23;;
33802;SDS011;20110;53.120;5.786;2023-04-02T15:59:23;4.85;;;1.35;;
33802;SDS011;20110;53.120;5.786;2023-04-02T16:05:05;4.60;;;1.25;;
33802;SDS011;20110;53.120;5.786;2023-04-02T16:10:53;1.10;;;1.00;;
33802;SDS011;20110;53.120;5.786;2023-04-02T16:16:14;3.08;;;1.20;;
33802;SDS011;20110;53.120;5.786;2023-04-02T16:19:07;5.15;;;1.65;;
33802;SDS011;20110;53.120;5.786;2023-04-02T16:24:56;2.70;;;1.00;;
33802;SDS011;20110;53.120;5.786;2023-04-02T16:33:29;3.97;;;1.00;;
33802;SDS011;20110;53.120;5.786;2023-04-02T16:42:07;2.13;;;1.07;;
33802;SDS011;20110;53.120;5.786;2023-04-02T16:47:40;1.65;;;1.05;;
33802;SDS011;20110;53.120;5.786;2023-04-02T16:50:21;4.15;;;1.15;;
33802;SDS011;20110;53.120;5.786;2023-04-02T16:52:57;4.55;;;1.20;;
33802;SDS011;20110;53.120;5.786;2023-04-02T17:10:22;4.38;;;1.42;;
33802;SDS011;20110;53.120;5.786;2023-04-02T17:13:18;0.95;;;0.75;;
33802;SDS011;20110;53.120;5.786;2023-04-02T17:16:54;6.03;;;1.10;;
33802;SDS011;20110;53.120;5.786;2023-04-02T17:19:11;2.00;;;1.15;;
33802;SDS011;20110;53.120;5.786;2023-04-02T17:21:41;6.30;;;1.50;;
33802;SDS011;20110;53.120;5.786;2023-04-02T17:26:44;2.25;;;1.20;;
33802;SDS011;20110;53.120;5.786;2023-04-02T17:29:16;2.60;;;1.75;;
33802;SDS011;20110;53.120;5.786;2023-04-02T17:31:58;7.90;;;1.52;;
33802;SDS011;20110;53.120;5.786;2023-04-02T17:34:27;8.98;;;1.60;;
33802;SDS011;20110;53.120;5.786;2023-04-02T17:43:08;4.45;;;1.50;;
33802;SDS011;20110;53.120;5.786;2023-04-02T17:46:16;7.15;;;2.08;;
33802;SDS011;20110;53.120;5.786;2023-04-02T17:48:47;12.02;;;1.70;;
33802;SDS011;20110;53.120;5.786;2023-04-02T17:54:46;4.45;;;1.40;;
33802;SDS011;20110;53.120;5.786;2023-04-02T18:10:00;3.67;;;1.20;;
33802;SDS011;20110;53.120;5.786;2023-04-02T18:15:44;2.45;;;1.42;;
33802;SDS011;20110;53.120;5.786;2023-04-02T18:27:19;5.47;;;1.52;;
33802;SDS011;20110;53.120;5.786;2023-04-02T18:30:37;11.25;;;1.50;;
33802;SDS011;20110;53.120;5.786;2023-04-02T18:33:25;4.28;;;1.60;;
33802;SDS011;20110;53.120;5.786;2023-04-02T18:39:03;11.38;;;2.08;;
33802;SDS011;20110;53.120;5.786;2023-04-02T18:41:53;5.82;;;1.70;;
33802;SDS011;20110;53.120;5.786;2023-04-02T18:47:29;5.63;;;1.70;;
33802;SDS011;20110;53.120;5.786;2023-04-02T18:50:17;6.43;;;1.58;;
33802;SDS011;20110;53.120;5.786;2023-04-02T18:53:04;3.25;;;1.98;;
33802;SDS011;20110;53.120;5.786;2023-04-02T18:55:39;2.88;;;1.85;;
33802;SDS011;20110;53.120;5.786;2023-04-02T18:58:26;4.97;;;1.63;;
33802;SDS011;20110;53.120;5.786;2023-04-02T19:01:03;5.07;;;1.70;;
33802;SDS011;20110;53.120;5.786;2023-04-02T19:03:38;7.95;;;1.65;;
33802;SDS011;20110;53.120;5.786;2023-04-02T19:06:19;8.68;;;1.45;;
33802;SDS011;20110;53.120;5.786;2023-04-02T19:08:54;7.35;;;1.85;;
33802;SDS011;20110;53.120;5.786;2023-04-02T19:11:25;3.63;;;1.55;;
33802;SDS011;20110;53.120;5.786;2023-04-02T19:13:58;3.17;;;1.55;;
33802;SDS011;20110;53.120;5.786;2023-04-02T19:19:28;4.47;;;1.52;;
33802;SDS011;20110;53.120;5.786;2023-04-02T19:22:11;3.35;;;1.65;;
33802;SDS011;20110;53.120;5.786;2023-04-02T19:25:17;10.23;;;1.90;;
33802;SDS011;20110;53.120;5.786;2023-04-02T19:28:11;5.43;;;1.77;;
33802;SDS011;20110;53.120;5.786;2023-04-02T19:38:59;2.85;;;1.60;;
33802;SDS011;20110;53.120;5.786;2023-04-02T19:44:08;4.53;;;1.58;;
33802;SDS011;20110;53.120;5.786;2023-04-02T19:46:37;3.08;;;1.60;;
33802;SDS011;20110;53.120;5.786;2023-04-02T19:51:43;3.58;;;1.65;;
33802;SDS011;20110;53.120;5.786;2023-04-02T19:54:09;4.22;;;1.83;;
33802;SDS011;20110;53.120;5.786;2023-04-02T19:56:36;3.40;;;1.55;;
33802;SDS011;20110;53.120;5.786;2023-04-02T19:59:02;4.85;;;1.83;;
33802;SDS011;20110;53.120;5.786;2023-04-02T20:01:29;5.80;;;1.80;;
33802;SDS011;20110;53.120;5.786;2023-04-02T20:03:55;5.75;;;1.65;;
33802;SDS011;20110;53.120;5.786;2023-04-02T20:06:21;5.13;;;1.60;;
33802;SDS011;20110;53.120;5.786;2023-04-02T20:08:47;2.55;;;1.40;;
33802;SDS011;20110;53.120;5.786;2023-04-02T20:11:13;1.55;;;1.42;;
33802;SDS011;20110;53.120;5.786;2023-04-02T20:13:39;4.47;;;1.50;;
33802;SDS011;20110;53.120;5.786;2023-04-02T20:16:05;3.05;;;1.65;;
33802;SDS011;20110;53.120;5.786;2023-04-02T20:18:32;1.50;;;1.40;;
33802;SDS011;20110;53.120;5.786;2023-04-02T20:21:02;6.63;;;2.13;;
33802;SDS011;20110;53.120;5.786;2023-04-02T20:23:30;7.68;;;1.80;;
33802;SDS011;20110;53.120;5.786;2023-04-02T20:25:56;2.80;;;1.30;;
33802;SDS011;20110;53.120;5.786;2023-04-02T20:28:22;2.80;;;1.40;;
33802;SDS011;20110;53.120;5.786;2023-04-02T20:30:50;8.00;;;1.42;;
33802;SDS011;20110;53.120;5.786;2023-04-02T20:33:21;1.63;;;1.52;;
33802;SDS011;20110;53.120;5.786;2023-04-02T20:35:49;6.55;;;1.65;;
33802;SDS011;20110;53.120;5.786;2023-04-02T20:38:16;2.00;;;1.40;;
33802;SDS011;20110;53.120;5.786;2023-04-02T20:40:43;1.67;;;1.38;;
33802;SDS011;20110;53.120;5.786;2023-04-02T20:43:10;1.17;;;1.08;;
33802;SDS011;20110;53.120;5.786;2023-04-02T20:45:36;8.23;;;1.83;;
33802;SDS011;20110;53.120;5.786;2023-04-02T20:48:02;2.53;;;1.70;;
33802;SDS011;20110;53.120;5.786;2023-04-02T20:50:29;5.75;;;1.67;;
33802;SDS011;20110;53.120;5.786;2023-04-02T20:52:56;2.70;;;1.20;;
33802;SDS011;20110;53.120;5.786;2023-04-02T20:55:24;3.55;;;1.98;;
33802;SDS011;20110;53.120;5.786;2023-04-02T20:57:50;3.00;;;1.63;;
33802;SDS011;20110;53.120;5.786;2023-04-02T21:00:16;2.65;;;1.50;;
33802;SDS011;20110;53.120;5.786;2023-04-02T21:02:42;3.92;;;1.52;;
33802;SDS011;20110;53.120;5.786;2023-04-02T21:05:08;4.60;;;1.38;;
33802;SDS011;20110;53.120;5.786;2023-04-02T21:07:33;4.93;;;1.73;;
33802;SDS011;20110;53.120;5.786;2023-04-02T21:09:59;2.33;;;1.52;;
33802;SDS011;20110;53.120;5.786;2023-04-02T21:12:25;2.22;;;1.58;;
33802;SDS011;20110;53.120;5.786;2023-04-02T21:14:51;6.13;;;1.52;;
33802;SDS011;20110;53.120;5.786;2023-04-02T21:17:21;2.78;;;1.70;;
33802;SDS011;20110;53.120;5.786;2023-04-02T21:19:48;5.50;;;1.50;;
33802;SDS011;20110;53.120;5.786;2023-04-02T21:22:14;3.65;;;1.92;;
33802;SDS011;20110;53.120;5.786;2023-04-02T21:24:41;1.92;;;1.48;;
33802;SDS011;20110;53.120;5.786;2023-04-02T21:27:07;4.10;;;1.75;;
33802;SDS011;20110;53.120;5.786;2023-04-02T21:29:33;6.43;;;1.77;;
33802;SDS011;20110;53.120;5.786;2023-04-02T21:31:58;3.95;;;1.52;;
33802;SDS011;20110;53.120;5.786;2023-04-02T21:34:24;3.75;;;1.45;;
33802;SDS011;20110;53.120;5.786;2023-04-02T21:36:50;6.25;;;2.40;;
33802;SDS011;20110;53.120;5.786;2023-04-02T21:39:20;10.55;;;2.13;;
33802;SDS011;20110;53.120;5.786;2023-04-02T21:41:48;1.88;;;1.38;;
33802;SDS011;20110;53.120;5.786;2023-04-02T21:44:18;3.58;;;2.03;;
33802;SDS011;20110;53.120;5.786;2023-04-02T21:46:46;2.15;;;1.55;;
33802;SDS011;20110;53.120;5.786;2023-04-02T21:49:14;5.88;;;1.95;;